sensor_id;sensor_type;location;lat;lon;timestamp;P1;durP1;ratioP1;P2;durP2;ratioP2
12665;SDS011;58531;59.050;17.416;2023-05-10T00:01:35;7.67;;;5.20;;
12665;SDS011;58531;59.050;17.416;2023-05-10T00:04:02;8.63;;;5.00;;
12665;SDS011;58531;59.050;17.416;2023-05-10T00:06:29;7.73;;;5.20;;
12665;SDS011;58531;59.050;17.416;2023-05-10T00:08:56;8.50;;;4.30;;
12665;SDS011;58531;59.050;17.416;2023-05-10T00:11:23;8.53;;;4.83;;
12665;SDS011;58531;59.050;17.416;2023-05-10T00:13:51;6.20;;;4.60;;
12665;SDS011;58531;59.050;17.416;2023-05-10T00:16:18;7.83;;;4.83;;
12665;SDS011;58531;59.050;17.416;2023-05-10T00:18:45;7.93;;;5.40;;
12665;SDS011;58531;59.050;17.416;2023-05-10T00:21:12;6.10;;;5.03;;
12665;SDS011;58531;59.050;17.416;2023-05-10T00:23:39;7.87;;;5.07;;
12665;SDS011;58531;59.050;17.416;2023-05-10T00:26:05;5.50;;;4.47;;
12665;SDS011;58531;59.050;17.416;2023-05-10T00:28:32;8.20;;;4.73;;
12665;SDS011;58531;59.050;17.416;2023-05-10T00:31:01;7.00;;;4.77;;
12665;SDS011;58531;59.050;17.416;2023-05-10T00:33:27;5.63;;;4.37;;
12665;SDS011;58531;59.050;17.416;2023-05-10T00:35:54;7.03;;;4.47;;
12665;SDS011;58531;59.050;17.416;2023-05-10T00:38:21;5.70;;;4.43;;
12665;SDS011;58531;59.050;17.416;2023-05-10T00:40:48;7.73;;;4.70;;
12665;SDS011;58531;59.050;17.416;2023-05-10T00:43:15;7.87;;;4.90;;
12665;SDS011;58531;59.050;17.416;2023-05-10T00:45:42;7.60;;;5.27;;
12665;SDS011;58531;59.050;17.416;2023-05-10T00:48:11;7.40;;;4.73;;
12665;SDS011;58531;59.050;17.416;2023-05-10T00:50:38;6.43;;;5.27;;
12665;SDS011;58531;59.050;17.416;2023-05-10T00:53:05;8.53;;;5.10;;
12665;SDS011;58531;59.050;17.416;2023-05-10T00:55:32;9.17;;;5.20;;
12665;SDS011;58531;59.050;17.416;2023-05-10T00:57:59;6.10;;;4.63;;
12665;SDS011;58531;59.050;17.416;2023-05-10T01:00:26;6.10;;;5.00;;
12665;SDS011;58531;59.050;17.416;2023-05-10T01:02:54;8.40;;;5.37;;
12665;SDS011;58531;59.050;17.416;2023-05-10T01:05:23;6.77;;;5.27;;
12665;SDS011;58531;59.050;17.416;2023-05-10T01:07:49;6.70;;;4.60;;
12665;SDS011;58531;59.050;17.416;2023-05-10T01:10:17;7.37;;;5.07;;
12665;SDS011;58531;59.050;17.416;2023-05-10T01:12:45;7.03;;;5.00;;
12665;SDS011;58531;59.050;17.416;2023-05-10T01:15:13;9.17;;;5.40;;
12665;SDS011;58531;59.050;17.416;2023-05-10T01:17:42;6.73;;;4.90;;
12665;SDS011;58531;59.050;17.416;2023-05-10T01:20:11;7.77;;;4.80;;
12665;SDS011;58531;59.050;17.416;2023-05-10T01:25:50;8.07;;;5.37;;
12665;SDS011;58531;59.050;17.416;2023-05-10T01:28:39;6.17;;;4.20;;
12665;SDS011;58531;59.050;17.416;2023-05-10T01:31:31;6.80;;;4.80;;
12665;SDS011;58531;59.050;17.416;2023-05-10T01:34:11;7.67;;;4.70;;
12665;SDS011;58531;59.050;17.416;2023-05-10T01:36:43;7.77;;;4.70;;
12665;SDS011;58531;59.050;17.416;2023-05-10T01:39:15;7.97;;;4.60;;
12665;SDS011;58531;59.050;17.416;2023-05-10T01:41:49;7.77;;;5.30;;
12665;SDS011;58531;59.050;17.416;2023-05-10T01:44:23;5.77;;;4.93;;
12665;SDS011;58531;59.050;17.416;2023-05-10T01:46:58;7.03;;;5.33;;
12665;SDS011;58531;59.050;17.416;2023-05-10T01:49:34;5.73;;;5.00;;
12665;SDS011;58531;59.050;17.416;2023-05-10T01:52:06;6.53;;;5.17;;
12665;SDS011;58531;59.050;17.416;2023-05-10T01:54:37;5.90;;;5.30;;
12665;SDS011;58531;59.050;17.416;2023-05-10T01:57:07;7.33;;;5.33;;
12665;SDS011;58531;59.050;17.416;2023-05-10T01:59:37;7.30;;;5.40;;
12665;SDS011;58531;59.050;17.416;2023-05-10T02:02:07;7.57;;;6.33;;
12665;SDS011;58531;59.050;17.416;2023-05-10T02:04:38;9.93;;;6.33;;
12665;SDS011;58531;59.050;17.416;2023-05-10T02:07:06;6.90;;;5.40;;
12665;SDS011;58531;59.050;17.416;2023-05-10T02:09:35;7.53;;;5.23;;
12665;SDS011;58531;59.050;17.416;2023-05-10T02:12:04;7.13;;;5.47;;
12665;SDS011;58531;59.050;17.416;2023-05-10T02:14:34;7.00;;;5.77;;
12665;SDS011;58531;59.050;17.416;2023-05-10T02:17:04;9.33;;;6.37;;
12665;SDS011;58531;59.050;17.416;2023-05-10T02:19:34;5.83;;;5.27;;
12665;SDS011;58531;59.050;17.416;2023-05-10T02:22:06;6.63;;;5.87;;
12665;SDS011;58531;59.050;17.416;2023-05-10T02:24:35;6.57;;;5.80;;
12665;SDS011;58531;59.050;17.416;2023-05-10T02:27:03;7.20;;;5.80;;
12665;SDS011;58531;59.050;17.416;2023-05-10T02:29:32;7.00;;;5.80;;
12665;SDS011;58531;59.050;17.416;2023-05-10T02:32:00;7.17;;;5.73;;
12665;SDS011;58531;59.050;17.416;2023-05-10T02:34:28;8.23;;;6.20;;
12665;SDS011;58531;59.050;17.416;2023-05-10T02:36:57;9.00;;;6.50;;
12665;SDS011;58531;59.050;17.416;2023-05-10T02:39:26;6.43;;;5.77;;
12665;SDS011;58531;59.050;17.416;2023-05-10T02:41:55;8.67;;;6.57;;
12665;SDS011;58531;59.050;17.416;2023-05-10T02:44:23;8.70;;;6.87;;
12665;SDS011;58531;59.050;17.416;2023-05-10T02:46:53;8.03;;;6.13;;
12665;SDS011;58531;59.050;17.416;2023-05-10T02:49:22;7.40;;;6.40;;
12665;SDS011;58531;59.050;17.416;2023-05-10T02:51:50;8.43;;;6.90;;
12665;SDS011;58531;59.050;17.416;2023-05-10T02:54:24;7.23;;;6.37;;
12665;SDS011;58531;59.050;17.416;2023-05-10T02:56:58;7.40;;;6.37;;
12665;SDS011;58531;59.050;17.416;2023-05-10T02:59:26;8.33;;;7.03;;
12665;SDS011;58531;59.050;17.416;2023-05-10T03:01:53;10.67;;;7.67;;
12665;SDS011;58531;59.050;17.416;2023-05-10T03:04:20;8.20;;;6.60;;
12665;SDS011;58531;59.050;17.416;2023-05-10T03:06:47;8.27;;;7.13;;
12665;SDS011;58531;59.050;17.416;2023-05-10T03:09:14;7.93;;;6.97;;
12665;SDS011;58531;59.050;17.416;2023-05-10T03:11:44;9.57;;;7.33;;
12665;SDS011;58531;59.050;17.416;2023-05-10T03:14:24;9.67;;;6.97;;
12665;SDS011;58531;59.050;17.416;2023-05-10T03:17:06;7.73;;;6.73;;
12665;SDS011;58531;59.050;17.416;2023-05-10T03:19:40;9.20;;;6.83;;
12665;SDS011;58531;59.050;17.416;2023-05-10T03:22:16;9.77;;;6.67;;
12665;SDS011;58531;59.050;17.416;2023-05-10T03:24:47;10.97;;;7.27;;
12665;SDS011;58531;59.050;17.416;2023-05-10T03:27:15;7.80;;;6.53;;
12665;SDS011;58531;59.050;17.416;2023-05-10T03:29:45;8.10;;;6.73;;
12665;SDS011;58531;59.050;17.416;2023-05-10T03:32:12;9.43;;;7.13;;
12665;SDS011;58531;59.050;17.416;2023-05-10T03:34:41;9.33;;;6.40;;
12665;SDS011;58531;59.050;17.416;2023-05-10T03:37:09;7.50;;;6.43;;
12665;SDS011;58531;59.050;17.416;2023-05-10T03:39:36;8.77;;;6.60;;
12665;SDS011;58531;59.050;17.416;2023-05-10T03:42:03;7.20;;;6.47;;
12665;SDS011;58531;59.050;17.416;2023-05-10T03:44:30;7.97;;;6.87;;
12665;SDS011;58531;59.050;17.416;2023-05-10T03:46:59;7.73;;;6.40;;
12665;SDS011;58531;59.050;17.416;2023-05-10T03:49:26;6.83;;;6.10;;
12665;SDS011;58531;59.050;17.416;2023-05-10T03:51:53;5.77;;;5.27;;
12665;SDS011;58531;59.050;17.416;2023-05-10T03:54:20;7.83;;;5.70;;
12665;SDS011;58531;59.050;17.416;2023-05-10T03:56:46;5.67;;;4.57;;
12665;SDS011;58531;59.050;17.416;2023-05-10T03:59:14;5.33;;;4.83;;
12665;SDS011;58531;59.050;17.416;2023-05-10T04:01:40;5.57;;;4.57;;
12665;SDS011;58531;59.050;17.416;2023-05-10T04:04:09;6.90;;;5.03;;
12665;SDS011;58531;59.050;17.416;2023-05-10T04:06:35;4.90;;;4.50;;
12665;SDS011;58531;59.050;17.416;2023-05-10T04:09:04;5.27;;;4.67;;
12665;SDS011;58531;59.050;17.416;2023-05-10T04:11:30;5.40;;;4.90;;
12665;SDS011;58531;59.050;17.416;2023-05-10T04:13:57;5.03;;;4.10;;
12665;SDS011;58531;59.050;17.416;2023-05-10T04:16:24;4.50;;;4.03;;
12665;SDS011;58531;59.050;17.416;2023-05-10T04:18:51;5.50;;;4.30;;
12665;SDS011;58531;59.050;17.416;2023-05-10T04:21:19;6.50;;;4.20;;
12665;SDS011;58531;59.050;17.416;2023-05-10T04:23:46;5.63;;;4.17;;
12665;SDS011;58531;59.050;17.416;2023-05-10T04:26:13;5.27;;;4.77;;
12665;SDS011;58531;59.050;17.416;2023-05-10T04:28:40;5.40;;;4.33;;
12665;SDS011;58531;59.050;17.416;2023-05-10T04:31:07;4.80;;;4.30;;
12665;SDS011;58531;59.050;17.416;2023-05-10T04:33:35;4.77;;;4.27;;
12665;SDS011;58531;59.050;17.416;2023-05-10T04:36:02;5.80;;;4.30;;
12665;SDS011;58531;59.050;17.416;2023-05-10T04:38:31;6.33;;;4.10;;
12665;SDS011;58531;59.050;17.416;2023-05-10T04:41:04;4.40;;;3.60;;
12665;SDS011;58531;59.050;17.416;2023-05-10T04:43:32;4.97;;;4.40;;
12665;SDS011;58531;59.050;17.416;2023-05-10T04:45:59;4.87;;;4.10;;
12665;SDS011;58531;59.050;17.416;2023-05-10T04:48:25;4.20;;;3.80;;
12665;SDS011;58531;59.050;17.416;2023-05-10T04:50:52;6.57;;;4.30;;
12665;SDS011;58531;59.050;17.416;2023-05-10T04:53:19;4.90;;;3.93;;
12665;SDS011;58531;59.050;17.416;2023-05-10T04:55:47;4.63;;;4.20;;
12665;SDS011;58531;59.050;17.416;2023-05-10T04:58:14;4.23;;;3.63;;
12665;SDS011;58531;59.050;17.416;2023-05-10T05:00:41;4.10;;;3.70;;
12665;SDS011;58531;59.050;17.416;2023-05-10T05:03:09;4.27;;;3.53;;
12665;SDS011;58531;59.050;17.416;2023-05-10T05:05:36;4.27;;;3.80;;
12665;SDS011;58531;59.050;17.416;2023-05-10T05:08:03;3.70;;;3.40;;
12665;SDS011;58531;59.050;17.416;2023-05-10T05:10:30;5.07;;;3.90;;
12665;SDS011;58531;59.050;17.416;2023-05-10T05:12:58;4.63;;;4.13;;
12665;SDS011;58531;59.050;17.416;2023-05-10T05:15:24;4.00;;;3.70;;
12665;SDS011;58531;59.050;17.416;2023-05-10T05:17:51;4.50;;;4.10;;
12665;SDS011;58531;59.050;17.416;2023-05-10T05:20:18;4.53;;;4.13;;
12665;SDS011;58531;59.050;17.416;2023-05-10T05:22:45;4.57;;;3.87;;
12665;SDS011;58531;59.050;17.416;2023-05-10T05:25:12;3.93;;;3.53;;
12665;SDS011;58531;59.050;17.416;2023-05-10T05:27:38;3.90;;;3.60;;
12665;SDS011;58531;59.050;17.416;2023-05-10T05:30:07;6.43;;;3.93;;
12665;SDS011;58531;59.050;17.416;2023-05-10T05:32:35;4.27;;;3.30;;
12665;SDS011;58531;59.050;17.416;2023-05-10T05:35:02;4.27;;;3.87;;
12665;SDS011;58531;59.050;17.416;2023-05-10T05:37:29;6.70;;;3.70;;
12665;SDS011;58531;59.050;17.416;2023-05-10T05:39:56;4.73;;;3.33;;
12665;SDS011;58531;59.050;17.416;2023-05-10T05:42:23;4.27;;;3.30;;
12665;SDS011;58531;59.050;17.416;2023-05-10T05:44:49;5.93;;;3.33;;
12665;SDS011;58531;59.050;17.416;2023-05-10T05:47:18;4.50;;;3.77;;
12665;SDS011;58531;59.050;17.416;2023-05-10T05:49:44;4.20;;;3.77;;
12665;SDS011;58531;59.050;17.416;2023-05-10T05:52:11;4.23;;;3.83;;
12665;SDS011;58531;59.050;17.416;2023-05-10T05:54:38;3.63;;;3.20;;
12665;SDS011;58531;59.050;17.416;2023-05-10T05:57:05;3.90;;;3.53;;
12665;SDS011;58531;59.050;17.416;2023-05-10T05:59:32;4.00;;;3.10;;
12665;SDS011;58531;59.050;17.416;2023-05-10T06:01:59;5.13;;;3.30;;
12665;SDS011;58531;59.050;17.416;2023-05-10T06:04:27;3.70;;;3.27;;
12665;SDS011;58531;59.050;17.416;2023-05-10T06:06:54;4.10;;;3.47;;
12665;SDS011;58531;59.050;17.416;2023-05-10T06:09:21;6.13;;;3.40;;
12665;SDS011;58531;59.050;17.416;2023-05-10T06:11:49;3.33;;;2.80;;
12665;SDS011;58531;59.050;17.416;2023-05-10T06:14:16;3.97;;;3.40;;
12665;SDS011;58531;59.050;17.416;2023-05-10T06:16:43;4.50;;;3.00;;
12665;SDS011;58531;59.050;17.416;2023-05-10T06:19:09;4.13;;;3.43;;
12665;SDS011;58531;59.050;17.416;2023-05-10T06:21:38;3.37;;;3.07;;
12665;SDS011;58531;59.050;17.416;2023-05-10T06:24:05;4.83;;;3.37;;
12665;SDS011;58531;59.050;17.416;2023-05-10T06:26:32;4.67;;;3.17;;
12665;SDS011;58531;59.050;17.416;2023-05-10T06:28:59;3.00;;;2.80;;
12665;SDS011;58531;59.050;17.416;2023-05-10T06:31:26;4.03;;;3.13;;
12665;SDS011;58531;59.050;17.416;2023-05-10T06:33:53;3.43;;;3.13;;
12665;SDS011;58531;59.050;17.416;2023-05-10T06:36:20;3.30;;;3.00;;
12665;SDS011;58531;59.050;17.416;2023-05-10T06:38:48;3.73;;;3.20;;
12665;SDS011;58531;59.050;17.416;2023-05-10T06:41:16;3.90;;;3.00;;
12665;SDS011;58531;59.050;17.416;2023-05-10T06:43:43;3.73;;;3.30;;
12665;SDS011;58531;59.050;17.416;2023-05-10T06:46:09;5.63;;;3.20;;
12665;SDS011;58531;59.050;17.416;2023-05-10T06:48:36;3.17;;;2.87;;
12665;SDS011;58531;59.050;17.416;2023-05-10T06:51:03;3.37;;;3.03;;
12665;SDS011;58531;59.050;17.416;2023-05-10T06:53:30;3.83;;;3.17;;
12665;SDS011;58531;59.050;17.416;2023-05-10T06:55:58;5.10;;;3.20;;
12665;SDS011;58531;59.050;17.416;2023-05-10T06:58:25;3.93;;;2.93;;
12665;SDS011;58531;59.050;17.416;2023-05-10T07:00:52;3.70;;;3.10;;
12665;SDS011;58531;59.050;17.416;2023-05-10T07:03:19;3.67;;;3.30;;
12665;SDS011;58531;59.050;17.416;2023-05-10T07:05:45;4.40;;;3.20;;
12665;SDS011;58531;59.050;17.416;2023-05-10T07:08:12;2.93;;;2.70;;
12665;SDS011;58531;59.050;17.416;2023-05-10T07:10:39;3.30;;;3.00;;
12665;SDS011;58531;59.050;17.416;2023-05-10T07:13:07;4.23;;;2.80;;
12665;SDS011;58531;59.050;17.416;2023-05-10T07:15:34;3.30;;;3.00;;
12665;SDS011;58531;59.050;17.416;2023-05-10T07:18:01;3.10;;;2.80;;
12665;SDS011;58531;59.050;17.416;2023-05-10T07:20:29;3.73;;;3.17;;
12665;SDS011;58531;59.050;17.416;2023-05-10T07:22:56;3.43;;;3.00;;
12665;SDS011;58531;59.050;17.416;2023-05-10T07:25:23;3.90;;;3.00;;
12665;SDS011;58531;59.050;17.416;2023-05-10T07:27:49;3.30;;;2.87;;
12665;SDS011;58531;59.050;17.416;2023-05-10T07:30:18;3.37;;;3.07;;
12665;SDS011;58531;59.050;17.416;2023-05-10T07:32:44;3.63;;;2.90;;
12665;SDS011;58531;59.050;17.416;2023-05-10T07:35:11;3.10;;;2.90;;
12665;SDS011;58531;59.050;17.416;2023-05-10T07:37:38;3.60;;;2.83;;
12665;SDS011;58531;59.050;17.416;2023-05-10T07:40:05;3.17;;;2.80;;
12665;SDS011;58531;59.050;17.416;2023-05-10T07:42:33;3.23;;;2.90;;
12665;SDS011;58531;59.050;17.416;2023-05-10T07:45:00;4.03;;;2.80;;
12665;SDS011;58531;59.050;17.416;2023-05-10T07:47:28;3.53;;;3.13;;
12665;SDS011;58531;59.050;17.416;2023-05-10T07:49:55;3.40;;;3.10;;
12665;SDS011;58531;59.050;17.416;2023-05-10T07:52:21;6.17;;;2.93;;
12665;SDS011;58531;59.050;17.416;2023-05-10T07:54:48;2.90;;;2.70;;
12665;SDS011;58531;59.050;17.416;2023-05-10T07:57:15;3.30;;;2.97;;
12665;SDS011;58531;59.050;17.416;2023-05-10T07:59:42;5.40;;;2.70;;
12665;SDS011;58531;59.050;17.416;2023-05-10T08:02:10;3.17;;;2.83;;
12665;SDS011;58531;59.050;17.416;2023-05-10T08:04:38;4.40;;;3.23;;
12665;SDS011;58531;59.050;17.416;2023-05-10T08:07:05;4.20;;;2.83;;
12665;SDS011;58531;59.050;17.416;2023-05-10T08:09:32;3.60;;;2.60;;
12665;SDS011;58531;59.050;17.416;2023-05-10T08:11:59;3.47;;;2.80;;
12665;SDS011;58531;59.050;17.416;2023-05-10T08:14:26;5.63;;;2.60;;
12665;SDS011;58531;59.050;17.416;2023-05-10T08:16:54;5.70;;;2.57;;
12665;SDS011;58531;59.050;17.416;2023-05-10T08:19:21;3.13;;;2.73;;
12665;SDS011;58531;59.050;17.416;2023-05-10T08:21:50;2.70;;;2.50;;
12665;SDS011;58531;59.050;17.416;2023-05-10T08:24:17;3.67;;;2.77;;
12665;SDS011;58531;59.050;17.416;2023-05-10T08:26:44;2.67;;;2.47;;
12665;SDS011;58531;59.050;17.416;2023-05-10T08:29:11;6.87;;;3.07;;
12665;SDS011;58531;59.050;17.416;2023-05-10T08:31:37;4.07;;;2.43;;
12665;SDS011;58531;59.050;17.416;2023-05-10T08:34:04;3.83;;;2.30;;
12665;SDS011;58531;59.050;17.416;2023-05-10T08:36:31;3.97;;;2.40;;
12665;SDS011;58531;59.050;17.416;2023-05-10T08:38:59;4.97;;;2.50;;
12665;SDS011;58531;59.050;17.416;2023-05-10T08:41:26;4.00;;;2.70;;
12665;SDS011;58531;59.050;17.416;2023-05-10T08:43:53;2.40;;;2.20;;
12665;SDS011;58531;59.050;17.416;2023-05-10T08:46:21;3.13;;;2.63;;
12665;SDS011;58531;59.050;17.416;2023-05-10T08:48:50;4.50;;;2.47;;
12665;SDS011;58531;59.050;17.416;2023-05-10T08:51:23;6.47;;;2.60;;
12665;SDS011;58531;59.050;17.416;2023-05-10T08:53:51;5.10;;;2.40;;
12665;SDS011;58531;59.050;17.416;2023-05-10T08:56:20;3.77;;;2.30;;
12665;SDS011;58531;59.050;17.416;2023-05-10T08:58:47;2.97;;;2.40;;
12665;SDS011;58531;59.050;17.416;2023-05-10T09:01:15;2.50;;;1.93;;
12665;SDS011;58531;59.050;17.416;2023-05-10T09:03:42;3.97;;;2.50;;
12665;SDS011;58531;59.050;17.416;2023-05-10T09:06:10;5.00;;;2.60;;
12665;SDS011;58531;59.050;17.416;2023-05-10T09:08:39;3.50;;;2.37;;
12665;SDS011;58531;59.050;17.416;2023-05-10T09:11:07;7.97;;;2.57;;
12665;SDS011;58531;59.050;17.416;2023-05-10T09:13:36;3.70;;;2.50;;
12665;SDS011;58531;59.050;17.416;2023-05-10T09:16:04;4.70;;;2.20;;
12665;SDS011;58531;59.050;17.416;2023-05-10T09:18:31;2.93;;;2.60;;
12665;SDS011;58531;59.050;17.416;2023-05-10T09:20:58;2.77;;;2.57;;
12665;SDS011;58531;59.050;17.416;2023-05-10T09:23:24;2.70;;;2.40;;
12665;SDS011;58531;59.050;17.416;2023-05-10T09:26:03;5.83;;;2.70;;
12665;SDS011;58531;59.050;17.416;2023-05-10T09:28:31;2.87;;;2.43;;
12665;SDS011;58531;59.050;17.416;2023-05-10T09:31:00;2.90;;;2.57;;
12665;SDS011;58531;59.050;17.416;2023-05-10T09:33:27;3.70;;;2.53;;
12665;SDS011;58531;59.050;17.416;2023-05-10T09:35:53;3.40;;;2.40;;
12665;SDS011;58531;59.050;17.416;2023-05-10T09:38:20;6.57;;;2.67;;
12665;SDS011;58531;59.050;17.416;2023-05-10T09:40:50;2.63;;;2.43;;
12665;SDS011;58531;59.050;17.416;2023-05-10T09:43:19;4.00;;;2.30;;
12665;SDS011;58531;59.050;17.416;2023-05-10T09:45:48;3.00;;;2.70;;
12665;SDS011;58531;59.050;17.416;2023-05-10T09:48:16;2.30;;;2.10;;
12665;SDS011;58531;59.050;17.416;2023-05-10T09:50:43;3.97;;;2.33;;
12665;SDS011;58531;59.050;17.416;2023-05-10T09:53:10;2.97;;;2.27;;
12665;SDS011;58531;59.050;17.416;2023-05-10T09:55:43;3.77;;;2.50;;
12665;SDS011;58531;59.050;17.416;2023-05-10T09:58:11;2.77;;;2.47;;
12665;SDS011;58531;59.050;17.416;2023-05-10T10:00:39;3.67;;;2.70;;
12665;SDS011;58531;59.050;17.416;2023-05-10T10:03:11;3.67;;;3.23;;
12665;SDS011;58531;59.050;17.416;2023-05-10T10:05:40;3.37;;;2.90;;
12665;SDS011;58531;59.050;17.416;2023-05-10T10:08:08;3.27;;;2.97;;
12665;SDS011;58531;59.050;17.416;2023-05-10T10:10:35;4.10;;;2.33;;
12665;SDS011;58531;59.050;17.416;2023-05-10T10:13:03;4.30;;;2.50;;
12665;SDS011;58531;59.050;17.416;2023-05-10T10:15:30;2.43;;;2.23;;
12665;SDS011;58531;59.050;17.416;2023-05-10T10:17:58;4.90;;;2.37;;
12665;SDS011;58531;59.050;17.416;2023-05-10T10:20:26;2.97;;;2.20;;
12665;SDS011;58531;59.050;17.416;2023-05-10T10:22:55;3.50;;;2.37;;
12665;SDS011;58531;59.050;17.416;2023-05-10T10:25:22;4.27;;;2.87;;
12665;SDS011;58531;59.050;17.416;2023-05-10T10:27:55;3.07;;;2.60;;
12665;SDS011;58531;59.050;17.416;2023-05-10T10:30:31;3.40;;;2.23;;
12665;SDS011;58531;59.050;17.416;2023-05-10T10:33:25;2.30;;;2.10;;
12665;SDS011;58531;59.050;17.416;2023-05-10T10:36:00;2.90;;;2.60;;
12665;SDS011;58531;59.050;17.416;2023-05-10T10:38:37;5.23;;;2.20;;
12665;SDS011;58531;59.050;17.416;2023-05-10T10:41:28;2.30;;;2.10;;
12665;SDS011;58531;59.050;17.416;2023-05-10T10:47:03;4.27;;;2.20;;
12665;SDS011;58531;59.050;17.416;2023-05-10T10:49:43;4.70;;;2.63;;
12665;SDS011;58531;59.050;17.416;2023-05-10T10:52:15;2.70;;;2.17;;
12665;SDS011;58531;59.050;17.416;2023-05-10T10:54:51;2.50;;;2.30;;
12665;SDS011;58531;59.050;17.416;2023-05-10T10:57:18;2.53;;;2.20;;
12665;SDS011;58531;59.050;17.416;2023-05-10T10:59:47;3.83;;;1.97;;
12665;SDS011;58531;59.050;17.416;2023-05-10T11:02:34;2.90;;;2.13;;
12665;SDS011;58531;59.050;17.416;2023-05-10T11:08:15;2.00;;;1.87;;
12665;SDS011;58531;59.050;17.416;2023-05-10T11:11:01;3.83;;;2.20;;
12665;SDS011;58531;59.050;17.416;2023-05-10T11:13:32;3.37;;;2.07;;
12665;SDS011;58531;59.050;17.416;2023-05-10T11:18:52;4.03;;;2.40;;
12665;SDS011;58531;59.050;17.416;2023-05-10T11:21:21;2.60;;;2.40;;
12665;SDS011;58531;59.050;17.416;2023-05-10T11:23:48;2.20;;;2.00;;
12665;SDS011;58531;59.050;17.416;2023-05-10T11:26:18;3.43;;;2.10;;
12665;SDS011;58531;59.050;17.416;2023-05-10T11:28:48;3.27;;;2.53;;
12665;SDS011;58531;59.050;17.416;2023-05-10T11:31:15;3.20;;;2.20;;
12665;SDS011;58531;59.050;17.416;2023-05-10T11:33:43;2.67;;;2.13;;
12665;SDS011;58531;59.050;17.416;2023-05-10T11:36:11;3.73;;;2.27;;
12665;SDS011;58531;59.050;17.416;2023-05-10T11:38:38;2.27;;;2.07;;
12665;SDS011;58531;59.050;17.416;2023-05-10T11:41:05;3.23;;;2.50;;
12665;SDS011;58531;59.050;17.416;2023-05-10T11:43:35;2.23;;;2.00;;
12665;SDS011;58531;59.050;17.416;2023-05-10T11:46:03;3.40;;;2.50;;
12665;SDS011;58531;59.050;17.416;2023-05-10T11:48:30;3.07;;;2.13;;
12665;SDS011;58531;59.050;17.416;2023-05-10T11:50:58;3.13;;;2.07;;
12665;SDS011;58531;59.050;17.416;2023-05-10T11:53:25;3.73;;;1.90;;
12665;SDS011;58531;59.050;17.416;2023-05-10T11:55:53;3.90;;;2.10;;
12665;SDS011;58531;59.050;17.416;2023-05-10T11:58:20;2.30;;;2.10;;
12665;SDS011;58531;59.050;17.416;2023-05-10T12:00:49;4.77;;;2.27;;
12665;SDS011;58531;59.050;17.416;2023-05-10T12:03:16;2.20;;;2.00;;
12665;SDS011;58531;59.050;17.416;2023-05-10T12:05:43;2.50;;;1.77;;
12665;SDS011;58531;59.050;17.416;2023-05-10T12:08:11;2.93;;;1.80;;
12665;SDS011;58531;59.050;17.416;2023-05-10T12:10:38;2.37;;;1.90;;
12665;SDS011;58531;59.050;17.416;2023-05-10T12:13:05;3.30;;;2.10;;
12665;SDS011;58531;59.050;17.416;2023-05-10T12:15:36;1.90;;;1.80;;
12665;SDS011;58531;59.050;17.416;2023-05-10T12:18:04;2.47;;;1.80;;
12665;SDS011;58531;59.050;17.416;2023-05-10T12:20:31;2.37;;;1.93;;
12665;SDS011;58531;59.050;17.416;2023-05-10T12:22:58;3.17;;;2.17;;
12665;SDS011;58531;59.050;17.416;2023-05-10T12:25:29;2.63;;;1.93;;
12665;SDS011;58531;59.050;17.416;2023-05-10T12:27:57;1.97;;;1.70;;
12665;SDS011;58531;59.050;17.416;2023-05-10T12:30:26;3.30;;;2.00;;
12665;SDS011;58531;59.050;17.416;2023-05-10T12:32:59;4.83;;;2.37;;
12665;SDS011;58531;59.050;17.416;2023-05-10T12:35:31;2.03;;;1.63;;
12665;SDS011;58531;59.050;17.416;2023-05-10T12:37:58;1.93;;;1.70;;
12665;SDS011;58531;59.050;17.416;2023-05-10T12:40:24;2.27;;;2.03;;
12665;SDS011;58531;59.050;17.416;2023-05-10T12:42:51;1.83;;;1.73;;
12665;SDS011;58531;59.050;17.416;2023-05-10T12:45:18;4.80;;;2.30;;
12665;SDS011;58531;59.050;17.416;2023-05-10T12:47:45;2.17;;;1.97;;
12665;SDS011;58531;59.050;17.416;2023-05-10T12:50:12;3.27;;;1.80;;
12665;SDS011;58531;59.050;17.416;2023-05-10T12:52:40;2.37;;;1.87;;
12665;SDS011;58531;59.050;17.416;2023-05-10T12:55:07;2.60;;;1.90;;
12665;SDS011;58531;59.050;17.416;2023-05-10T12:57:34;1.77;;;1.67;;
12665;SDS011;58531;59.050;17.416;2023-05-10T13:00:01;2.03;;;1.80;;
12665;SDS011;58531;59.050;17.416;2023-05-10T13:02:30;2.30;;;2.10;;
12665;SDS011;58531;59.050;17.416;2023-05-10T13:04:56;3.60;;;1.90;;
12665;SDS011;58531;59.050;17.416;2023-05-10T13:07:23;2.07;;;1.83;;
12665;SDS011;58531;59.050;17.416;2023-05-10T13:09:51;4.20;;;2.30;;
12665;SDS011;58531;59.050;17.416;2023-05-10T13:12:18;2.70;;;1.83;;
12665;SDS011;58531;59.050;17.416;2023-05-10T13:14:45;3.30;;;1.80;;
12665;SDS011;58531;59.050;17.416;2023-05-10T13:17:12;3.23;;;1.90;;
12665;SDS011;58531;59.050;17.416;2023-05-10T13:19:38;2.40;;;1.93;;
12665;SDS011;58531;59.050;17.416;2023-05-10T13:22:05;2.10;;;1.90;;
12665;SDS011;58531;59.050;17.416;2023-05-10T13:24:32;3.90;;;2.20;;
12665;SDS011;58531;59.050;17.416;2023-05-10T13:27:00;3.63;;;1.80;;
12665;SDS011;58531;59.050;17.416;2023-05-10T13:29:27;2.37;;;1.67;;
12665;SDS011;58531;59.050;17.416;2023-05-10T13:31:54;1.80;;;1.70;;
12665;SDS011;58531;59.050;17.416;2023-05-10T13:34:21;3.30;;;1.73;;
12665;SDS011;58531;59.050;17.416;2023-05-10T13:36:47;3.57;;;2.17;;
12665;SDS011;58531;59.050;17.416;2023-05-10T13:39:14;3.63;;;1.90;;
12665;SDS011;58531;59.050;17.416;2023-05-10T13:41:41;3.87;;;1.87;;
12665;SDS011;58531;59.050;17.416;2023-05-10T13:44:11;3.53;;;1.80;;
12665;SDS011;58531;59.050;17.416;2023-05-10T13:46:38;2.33;;;1.97;;
12665;SDS011;58531;59.050;17.416;2023-05-10T13:49:05;2.20;;;2.00;;
12665;SDS011;58531;59.050;17.416;2023-05-10T13:51:32;3.53;;;1.70;;
12665;SDS011;58531;59.050;17.416;2023-05-10T13:54:00;3.57;;;1.90;;
12665;SDS011;58531;59.050;17.416;2023-05-10T13:56:27;2.80;;;1.93;;
12665;SDS011;58531;59.050;17.416;2023-05-10T13:58:54;3.53;;;1.90;;
12665;SDS011;58531;59.050;17.416;2023-05-10T14:01:23;2.77;;;2.03;;
12665;SDS011;58531;59.050;17.416;2023-05-10T14:03:50;3.47;;;1.97;;
12665;SDS011;58531;59.050;17.416;2023-05-10T14:06:17;3.07;;;1.77;;
12665;SDS011;58531;59.050;17.416;2023-05-10T14:08:44;2.80;;;1.97;;
12665;SDS011;58531;59.050;17.416;2023-05-10T14:11:11;3.30;;;2.10;;
12665;SDS011;58531;59.050;17.416;2023-05-10T14:13:38;1.80;;;1.70;;
12665;SDS011;58531;59.050;17.416;2023-05-10T14:16:05;5.03;;;1.60;;
12665;SDS011;58531;59.050;17.416;2023-05-10T14:18:33;2.07;;;1.87;;
12665;SDS011;58531;59.050;17.416;2023-05-10T14:21:01;2.13;;;1.97;;
12665;SDS011;58531;59.050;17.416;2023-05-10T14:23:28;3.43;;;2.10;;
12665;SDS011;58531;59.050;17.416;2023-05-10T14:25:55;2.07;;;1.87;;
12665;SDS011;58531;59.050;17.416;2023-05-10T14:28:22;2.20;;;1.83;;
12665;SDS011;58531;59.050;17.416;2023-05-10T14:30:50;2.83;;;1.90;;
12665;SDS011;58531;59.050;17.416;2023-05-10T14:33:17;3.63;;;1.70;;
12665;SDS011;58531;59.050;17.416;2023-05-10T14:35:45;2.70;;;1.80;;
12665;SDS011;58531;59.050;17.416;2023-05-10T14:38:13;2.47;;;1.77;;
12665;SDS011;58531;59.050;17.416;2023-05-10T14:40:40;2.93;;;1.70;;
12665;SDS011;58531;59.050;17.416;2023-05-10T14:43:07;2.10;;;1.90;;
12665;SDS011;58531;59.050;17.416;2023-05-10T14:45:34;2.60;;;2.07;;
12665;SDS011;58531;59.050;17.416;2023-05-10T14:48:00;3.07;;;2.00;;
12665;SDS011;58531;59.050;17.416;2023-05-10T14:50:29;2.60;;;2.10;;
12665;SDS011;58531;59.050;17.416;2023-05-10T14:52:57;1.60;;;1.50;;